createdAt,value
2017-07-25T00:00:11.190Z,88.33
2017-07-25T00:01:11.185Z,88.71
2017-07-25T00:02:10.977Z,88.71
2017-07-25T00:03:11.176Z,88.62
2017-07-25T00:04:11.171Z,88.81
2017-07-25T00:05:11.169Z,88.52
2017-07-25T00:06:11.173Z,87.76
2017-07-25T00:07:11.262Z,87.85
2017-07-25T00:08:11.164Z,88.13
2017-07-25T00:09:11.154Z,87.95
2017-07-25T00:10:10.850Z,88.04
2017-07-25T00:11:11.148Z,88.04
2017-07-25T00:12:11.145Z,88.04
2017-07-25T00:13:11.142Z,87.95
2017-07-25T00:14:11.139Z,88.13
2017-07-25T00:15:11.135Z,87.95
2017-07-25T00:16:11.131Z,87.76
2017-07-25T00:17:11.128Z,87.85
2017-07-25T00:18:11.132Z,87.85
2017-07-25T00:19:11.124Z,87.95
2017-07-25T00:20:11.117Z,87.76
2017-07-25T00:21:11.118Z,88.13
2017-07-25T00:22:11.116Z,88.13
2017-07-25T00:23:11.110Z,88.13
2017-07-25T00:24:11.105Z,88.23
2017-07-25T00:25:11.104Z,87.95
2017-07-25T00:26:11.201Z,87.95
2017-07-25T00:27:11.097Z,88.71
2017-07-25T00:28:11.095Z,88.9
2017-07-25T00:29:11.090Z,88.71
2017-07-25T00:30:11.087Z,88.62
2017-07-25T00:31:10.780Z,88.52
2017-07-25T00:32:10.771Z,88.43
2017-07-25T00:33:11.073Z,88.43
2017-07-25T00:34:10.769Z,88.43
2017-07-25T00:35:11.070Z,88.43
2017-07-25T00:36:11.066Z,88.33
2017-07-25T00:37:11.062Z,88.52
2017-07-25T00:38:11.055Z,88.52
2017-07-25T00:39:11.057Z,88.33
2017-07-25T00:40:11.051Z,88.33
2017-07-25T00:41:11.045Z,88.43
2017-07-25T00:42:11.048Z,88.38
2017-07-25T00:43:11.042Z,88.43
2017-07-25T00:44:10.838Z,88.33
2017-07-25T00:45:11.036Z,88.43
2017-07-25T00:46:11.030Z,88.13
2017-07-25T00:47:11.150Z,88.33
2017-07-25T00:48:10.718Z,88.43
2017-07-25T00:49:11.020Z,88.43
2017-07-25T00:50:11.017Z,88.62
2017-07-25T00:51:11.021Z,88.62
2017-07-25T00:52:11.013Z,88.43
2017-07-25T00:53:11.006Z,88.13
2017-07-25T00:54:11.003Z,88.52
2017-07-25T00:55:11.003Z,88.71
2017-07-25T00:56:10.693Z,88.52
2017-07-25T00:57:10.993Z,88.38
2017-07-25T00:58:10.686Z,88.19
2017-07-25T00:59:11.004Z,88.62
2017-07-25T01:00:10.983Z,88.52
2017-07-25T01:01:11.083Z,88.33
2017-07-25T01:02:10.977Z,88.29
2017-07-25T01:03:10.970Z,88.67
2017-07-25T01:04:10.968Z,88.57
2017-07-25T01:05:10.662Z,88.38
2017-07-25T01:06:10.964Z,88.38
2017-07-25T01:07:10.959Z,88.57
2017-07-25T01:08:10.955Z,88.57
2017-07-25T01:09:10.961Z,88.38
2017-07-25T01:10:10.949Z,88.09
2017-07-25T01:11:10.945Z,88.76
2017-07-25T01:12:10.639Z,88.76
2017-07-25T01:13:10.940Z,88.86
2017-07-25T01:14:11.036Z,88.57
2017-07-25T01:15:10.929Z,89.05
2017-07-25T01:16:10.930Z,88.76
2017-07-25T01:17:10.924Z,88.76
2017-07-25T01:18:10.921Z,88.57
2017-07-25T01:19:10.921Z,88.86
2017-07-25T01:20:10.918Z,88.86
2017-07-25T01:21:10.910Z,88.57
2017-07-25T01:22:10.909Z,88.57
2017-07-25T01:23:10.907Z,88.86
2017-07-25T01:24:10.594Z,88.67
2017-07-25T01:25:10.999Z,88.52
2017-07-25T01:26:10.893Z,88.57
2017-07-25T01:27:10.994Z,88.71
2017-07-25T01:28:10.883Z,88.38
2017-07-25T01:29:10.884Z,88.09
2017-07-25T01:30:10.882Z,88.04
2017-07-25T01:31:10.878Z,88.43
2017-07-25T01:32:10.870Z,88.43
2017-07-25T01:33:10.869Z,88.62
2017-07-25T01:34:10.864Z,88.62
2017-07-25T01:35:10.862Z,88.33
2017-07-25T01:36:10.860Z,88.62
2017-07-25T01:37:10.860Z,88.57
2017-07-25T01:38:10.853Z,88.57
2017-07-25T01:39:10.850Z,88.62
2017-07-25T01:40:10.848Z,88.38
2017-07-25T01:41:10.843Z,88.52
2017-07-25T01:42:10.937Z,88.38
2017-07-25T01:43:10.836Z,88.43
2017-07-25T01:44:10.832Z,88.9
2017-07-25T01:45:10.829Z,88.71
2017-07-25T01:46:10.820Z,88.81
2017-07-25T01:47:10.822Z,88.48
2017-07-25T01:48:10.817Z,88.71
2017-07-25T01:49:10.813Z,88.52
2017-07-25T01:50:10.807Z,88.81
2017-07-25T01:51:10.803Z,88.81
2017-07-25T01:52:10.802Z,88.81
2017-07-25T01:53:10.897Z,88.81
2017-07-25T01:54:10.489Z,88.52
2017-07-25T01:55:10.792Z,88.33
2017-07-25T01:56:10.794Z,88.23
2017-07-25T01:57:10.784Z,88.43
2017-07-25T01:58:10.784Z,88.62
2017-07-25T01:59:10.783Z,88.9
2017-07-25T02:00:10.776Z,88.71
2017-07-25T02:01:10.786Z,88.52
2017-07-25T02:02:10.866Z,88.71
2017-07-25T02:03:10.768Z,88.13
2017-07-25T02:04:10.862Z,88.13
2017-07-25T02:05:10.451Z,87.85
2017-07-25T02:06:10.753Z,88.04
2017-07-25T02:07:10.750Z,88.23
2017-07-25T02:08:10.440Z,87.85
2017-07-25T02:09:10.742Z,88.13
2017-07-25T02:10:10.740Z,88.23
2017-07-25T02:11:10.736Z,88.13
2017-07-25T02:12:10.429Z,88.23
2017-07-25T02:13:10.728Z,88.43
2017-07-25T02:14:10.727Z,88.33
2017-07-25T02:15:10.418Z,88.13
2017-07-25T02:16:10.718Z,87.95
2017-07-25T02:17:10.818Z,87.85
2017-07-25T02:18:10.714Z,88.23
2017-07-25T02:19:10.715Z,88.23
2017-07-25T02:20:10.707Z,88.23
2017-07-25T02:21:10.707Z,88.23
2017-07-25T02:22:10.698Z,87.47
2017-07-25T02:23:10.697Z,87.95
2017-07-25T02:24:10.692Z,88.23
2017-07-25T02:25:10.693Z,88.23
2017-07-25T02:26:10.688Z,88.33
2017-07-25T02:27:10.678Z,88.43
2017-07-25T02:28:10.682Z,87.66
2017-07-25T02:29:10.676Z,87.76
2017-07-25T02:30:10.465Z,87.9
2017-07-25T02:31:10.668Z,87.81
2017-07-25T02:32:10.669Z,87.9
2017-07-25T02:33:10.660Z,87.9
2017-07-25T02:34:10.657Z,87.9
2017-07-25T02:35:10.654Z,87.81
2017-07-25T02:36:10.649Z,87.52
2017-07-25T02:37:10.648Z,87.71
2017-07-25T02:38:10.642Z,88
2017-07-25T02:39:10.638Z,87.66
2017-07-25T02:40:10.332Z,87.52
2017-07-25T02:41:10.734Z,87.47
2017-07-25T02:42:10.332Z,87.52
2017-07-25T02:43:10.629Z,87.47
2017-07-25T02:44:10.318Z,87.23
2017-07-25T02:45:10.620Z,87.47
2017-07-25T02:46:10.613Z,87.56
2017-07-25T02:47:10.610Z,87.43
2017-07-25T02:48:10.605Z,87.56
2017-07-25T02:49:10.605Z,87.66
2017-07-25T02:50:10.296Z,87.23
2017-07-25T02:51:10.598Z,87.27
2017-07-25T02:52:10.592Z,87.18
2017-07-25T02:53:10.588Z,87.33
2017-07-25T02:54:10.587Z,87.33
2017-07-25T02:55:10.589Z,87.23
2017-07-25T02:56:10.678Z,87.43
2017-07-25T02:57:10.573Z,87.43
2017-07-25T02:58:10.570Z,87.37
2017-07-25T02:59:10.566Z,88
2017-07-25T03:00:10.585Z,87.33
2017-07-25T03:01:10.713Z,87.43
2017-07-25T03:02:10.557Z,87.23
2017-07-25T03:03:10.554Z,87.23
2017-07-25T03:04:10.549Z,87.23
2017-07-25T03:05:10.546Z,87.33
2017-07-25T03:06:10.542Z,87.14
2017-07-25T03:07:10.549Z,87.71
2017-07-25T03:08:10.587Z,87.62
2017-07-25T03:09:10.531Z,87.52
2017-07-25T03:10:10.529Z,87.71
2017-07-25T03:11:10.526Z,87.81
2017-07-25T03:12:10.672Z,87.52
2017-07-25T03:13:10.518Z,87.62
2017-07-25T03:14:10.516Z,87.81
2017-07-25T03:15:10.205Z,88
2017-07-25T03:16:10.202Z,87.81
2017-07-25T03:17:10.505Z,87.81
2017-07-25T03:18:10.598Z,87.52
2017-07-25T03:19:10.496Z,88.29
2017-07-25T03:20:10.193Z,88.29
2017-07-25T03:21:10.491Z,87.71
2017-07-25T03:22:10.487Z,87.52
2017-07-25T03:23:10.485Z,87.52
2017-07-25T03:24:10.176Z,87.71
2017-07-25T03:25:10.474Z,87.52
2017-07-25T03:26:10.473Z,87.52
2017-07-25T03:27:10.468Z,87.9
2017-07-25T03:28:10.463Z,87.43
2017-07-25T03:29:10.157Z,87.81
2017-07-25T03:30:10.464Z,88
2017-07-25T03:31:10.460Z,87.62
2017-07-25T03:32:10.448Z,87.62
2017-07-25T03:33:10.446Z,87.33
2017-07-25T03:34:10.145Z,87.23
2017-07-25T03:35:10.439Z,87.52
2017-07-25T03:36:10.437Z,87.52
2017-07-25T03:37:10.432Z,87.14
2017-07-25T03:38:10.124Z,87.23
2017-07-25T03:39:10.427Z,87.52
2017-07-25T03:40:10.441Z,87.38
2017-07-25T03:41:10.418Z,87.29
2017-07-25T03:42:10.418Z,87.33
2017-07-25T03:43:10.557Z,87.33
2017-07-25T03:44:10.101Z,87.38
2017-07-25T03:45:10.400Z,87.29
2017-07-25T03:46:10.401Z,87.33
2017-07-25T03:47:10.398Z,87.62
2017-07-25T03:48:10.393Z,87.57
2017-07-25T03:49:10.389Z,87.57
2017-07-25T03:50:10.387Z,87.76
2017-07-25T03:51:10.381Z,87.9
2017-07-25T03:52:10.074Z,87.86
2017-07-25T03:53:10.473Z,87.66
2017-07-25T03:54:10.373Z,87.86
2017-07-25T03:55:10.372Z,87.86
2017-07-25T03:56:10.366Z,87.66
2017-07-25T03:57:10.363Z,87.86
2017-07-25T03:58:10.456Z,87.76
2017-07-25T03:59:10.506Z,88.05
2017-07-25T04:00:10.373Z,88.24
2017-07-25T04:01:10.345Z,87.95
2017-07-25T04:02:10.039Z,88.15
2017-07-25T04:03:10.346Z,88.05
2017-07-25T04:04:10.341Z,88.15
2017-07-25T04:05:10.331Z,88.05
2017-07-25T04:06:10.329Z,88.15
2017-07-25T04:07:10.325Z,88.05
2017-07-25T04:08:10.020Z,88.24
2017-07-25T04:09:10.314Z,87.86
2017-07-25T04:10:10.313Z,87.95
2017-07-25T04:11:10.308Z,87.9
2017-07-25T04:12:10.303Z,87.71
2017-07-25T04:13:10.304Z,88.05
2017-07-25T04:14:10.300Z,88.19
2017-07-25T04:15:10.295Z,87.9
2017-07-25T04:16:10.391Z,88.38
2017-07-25T04:17:10.289Z,88.29
2017-07-25T04:18:10.283Z,87.71
2017-07-25T04:19:10.282Z,87.71
2017-07-25T04:20:10.278Z,87.52
2017-07-25T04:21:09.968Z,87.71
2017-07-25T04:22:10.270Z,87.52
2017-07-25T04:23:10.268Z,87.23
2017-07-25T04:24:10.361Z,87.14
2017-07-25T04:25:10.256Z,87.52
2017-07-25T04:26:10.252Z,87.43
2017-07-25T04:27:10.248Z,87.52
2017-07-25T04:28:09.958Z,87.14
2017-07-25T04:29:10.255Z,87.62
2017-07-25T04:30:10.391Z,87.52
2017-07-25T04:31:10.233Z,87.23
2017-07-25T04:32:10.229Z,87.14
2017-07-25T04:33:10.229Z,86.94
2017-07-25T04:34:10.228Z,87.14
2017-07-25T04:35:09.915Z,87.33
2017-07-25T04:36:10.216Z,86.76
2017-07-25T04:37:10.212Z,87.33
2017-07-25T04:38:10.211Z,87.14
2017-07-25T04:39:10.207Z,86.7
2017-07-25T04:40:10.209Z,86.76
2017-07-25T04:41:10.199Z,86.47
2017-07-25T04:42:10.195Z,86.37
2017-07-25T04:43:10.199Z,86.85
2017-07-25T04:44:10.190Z,86.32
2017-07-25T04:45:09.881Z,86.13
2017-07-25T04:46:10.188Z,86.08
2017-07-25T04:47:10.277Z,86.32
2017-07-25T04:48:10.172Z,86.51
2017-07-25T04:49:10.171Z,86.47
2017-07-25T04:50:10.165Z,86.47
2017-07-25T04:51:10.162Z,86.22
2017-07-25T04:52:09.853Z,86.37
2017-07-25T04:53:10.152Z,86.37
2017-07-25T04:54:10.149Z,86.32
2017-07-25T04:55:09.843Z,86.32
2017-07-25T04:56:10.141Z,86.13
2017-07-25T04:57:10.141Z,86.22
2017-07-25T04:58:10.132Z,86.41
2017-07-25T04:59:10.133Z,86.22
2017-07-25T05:00:10.179Z,86.04
2017-07-25T05:01:10.125Z,85.84
2017-07-25T05:02:09.815Z,85.75
2017-07-25T05:03:10.117Z,86.13
2017-07-25T05:04:10.112Z,86.22
2017-07-25T05:05:09.806Z,85.84
2017-07-25T05:06:10.111Z,85.55
2017-07-25T05:07:10.106Z,85.51
2017-07-25T05:08:10.097Z,85.8
2017-07-25T05:09:10.096Z,85.84
2017-07-25T05:10:10.090Z,85.84
2017-07-25T05:11:10.087Z,85.75
2017-07-25T05:12:10.082Z,85.75
2017-07-25T05:13:10.083Z,85.46
2017-07-25T05:14:10.081Z,85.22
2017-07-25T05:15:10.174Z,85.46
2017-07-25T05:16:10.069Z,85.36
2017-07-25T05:17:10.067Z,85.46
2017-07-25T05:18:10.065Z,84.98
2017-07-25T05:19:10.059Z,85.17
2017-07-25T05:20:10.077Z,85.55
2017-07-25T05:21:10.153Z,85.55
2017-07-25T05:22:10.046Z,85.17
2017-07-25T05:23:10.044Z,85.36
2017-07-25T05:24:10.039Z,85.55
2017-07-25T05:25:10.045Z,85.46
2017-07-25T05:26:10.035Z,84.88
2017-07-25T05:27:10.032Z,85.08
2017-07-25T05:28:10.025Z,84.98
2017-07-25T05:29:10.023Z,85.17
2017-07-25T05:30:10.032Z,85.27
2017-07-25T05:31:10.014Z,84.69
2017-07-25T05:32:09.708Z,84.79
2017-07-25T05:33:10.006Z,84.98
2017-07-25T05:34:09.708Z,84.79
2017-07-25T05:35:10.000Z,84.59
2017-07-25T05:36:09.996Z,84.31
2017-07-25T05:37:10.095Z,84.41
2017-07-25T05:38:09.997Z,84.59
2017-07-25T05:39:09.985Z,84.5
2017-07-25T05:40:09.981Z,84.69
2017-07-25T05:41:10.002Z,84.5
2017-07-25T05:42:10.082Z,84.69
2017-07-25T05:43:09.974Z,84.69
2017-07-25T05:44:09.968Z,85.17
2017-07-25T05:45:09.970Z,84.69
2017-07-25T05:46:09.963Z,84.31
2017-07-25T05:47:09.957Z,84.69
2017-07-25T05:48:09.951Z,84.5
2017-07-25T05:49:09.951Z,84.69
2017-07-25T05:50:09.948Z,84.59
2017-07-25T05:51:10.043Z,84.69
2017-07-25T05:52:10.090Z,84.69
2017-07-25T05:53:09.934Z,84.69
2017-07-25T05:54:10.032Z,84.69
2017-07-25T05:55:09.928Z,84.69
2017-07-25T05:56:09.923Z,84.41
2017-07-25T05:57:09.920Z,84.69
2017-07-25T05:58:09.615Z,84.69
2017-07-25T05:59:09.757Z,84.5
2017-07-25T06:00:09.912Z,84.69
2017-07-25T06:01:09.906Z,84.79
2017-07-25T06:02:09.597Z,84.98
2017-07-25T06:03:09.593Z,84.59
2017-07-25T06:04:09.897Z,85.08
2017-07-25T06:05:09.892Z,84.79
2017-07-25T06:06:09.888Z,84.69
2017-07-25T06:07:09.581Z,84.98
2017-07-25T06:08:09.888Z,84.98
2017-07-25T06:09:09.877Z,85.08
2017-07-25T06:10:09.974Z,85.17
2017-07-25T06:11:09.870Z,84.98
2017-07-25T06:12:09.865Z,84.74
2017-07-25T06:13:09.860Z,84.74
2017-07-25T06:14:09.859Z,84.69
2017-07-25T06:15:09.856Z,84.64
2017-07-25T06:16:09.851Z,84.45
2017-07-25T06:17:09.845Z,84.74
2017-07-25T06:18:09.853Z,84.74
2017-07-25T06:19:09.841Z,85.02
2017-07-25T06:20:09.832Z,84.45
2017-07-25T06:21:09.526Z,84.35
2017-07-25T06:22:09.826Z,84.45
2017-07-25T06:23:09.824Z,84.35
2017-07-25T06:24:09.822Z,84.45
2017-07-25T06:25:09.515Z,84.16
2017-07-25T06:26:09.815Z,84.39
2017-07-25T06:27:09.657Z,84.11
2017-07-25T06:28:09.501Z,84.39
2017-07-25T06:29:09.498Z,84.3
2017-07-25T06:30:09.494Z,84.49
2017-07-25T06:31:09.799Z,84.39
2017-07-25T06:32:09.790Z,84.2
2017-07-25T06:33:09.631Z,84.2
2017-07-25T06:34:09.480Z,84.3
2017-07-25T06:35:09.780Z,83.44
2017-07-25T06:36:09.776Z,83.92
2017-07-25T06:37:09.776Z,83.82
2017-07-25T06:38:09.880Z,83.44
2017-07-25T06:39:09.764Z,83.72
2017-07-25T06:40:09.459Z,83.05
2017-07-25T06:41:09.757Z,83.05
2017-07-25T06:42:09.449Z,83.15
2017-07-25T06:43:09.753Z,82.96
2017-07-25T06:44:09.749Z,82.57
2017-07-25T06:45:09.439Z,82.81
2017-07-25T06:46:09.432Z,82.29
2017-07-25T06:47:09.739Z,82.52
2017-07-25T06:48:09.428Z,82.14
2017-07-25T06:49:09.729Z,81.75
2017-07-25T06:50:09.421Z,81.75
2017-07-25T06:51:09.418Z,81.56
2017-07-25T06:52:09.720Z,81.27
2017-07-25T06:53:09.714Z,81.08
2017-07-25T06:54:09.721Z,80.6
2017-07-25T06:55:09.812Z,80.41
2017-07-25T06:56:09.708Z,80.51
2017-07-25T06:57:09.804Z,80.41
2017-07-25T06:58:09.724Z,79.83
2017-07-25T06:59:09.845Z,79.93
2017-07-25T07:00:09.701Z,79.93
2017-07-25T07:01:09.692Z,80.03
2017-07-25T07:02:09.684Z,79.55
2017-07-25T07:03:09.783Z,79.45
2017-07-25T07:04:09.781Z,79.36
2017-07-25T07:05:09.685Z,79.45
2017-07-25T07:06:09.672Z,78.78
2017-07-25T07:07:09.671Z,78.49
2017-07-25T07:08:09.663Z,78.3
2017-07-25T07:09:09.662Z,77.63
2017-07-25T07:10:09.658Z,78.11
2017-07-25T07:11:09.658Z,77.67
2017-07-25T07:12:09.652Z,77.86
2017-07-25T07:13:09.650Z,77.29
2017-07-25T07:14:09.646Z,76.46
2017-07-25T07:15:09.638Z,76.81
2017-07-25T07:16:09.637Z,76.56
2017-07-25T07:17:09.635Z,75.98
2017-07-25T07:18:09.632Z,75.7
2017-07-25T07:19:09.626Z,75.4
2017-07-25T07:20:09.319Z,74.73
2017-07-25T07:21:09.626Z,74.83
2017-07-25T07:22:09.619Z,74.44
2017-07-25T07:23:09.618Z,74.26
2017-07-25T07:24:09.612Z,74.54
2017-07-25T07:25:09.304Z,74.26
2017-07-25T07:26:09.604Z,74.35
2017-07-25T07:27:09.606Z,73.97
2017-07-25T07:28:09.600Z,74.06
2017-07-25T07:29:09.596Z,73.97
2017-07-25T07:30:09.592Z,74.06
2017-07-25T07:31:09.599Z,73.58
2017-07-25T07:32:09.282Z,73.39
2017-07-25T07:33:09.582Z,73.68
2017-07-25T07:34:09.578Z,73.68
2017-07-25T07:35:09.677Z,73.77
2017-07-25T07:36:09.269Z,73.87
2017-07-25T07:37:09.566Z,73.2
2017-07-25T07:38:09.569Z,73.77
2017-07-25T07:39:09.562Z,73.39
2017-07-25T07:40:09.254Z,73.68
2017-07-25T07:41:09.657Z,73.77
2017-07-25T07:42:09.554Z,72.91
2017-07-25T07:43:09.550Z,73.1
2017-07-25T07:44:09.547Z,72.72
2017-07-25T07:45:09.238Z,72.91
2017-07-25T07:46:09.540Z,72.72
2017-07-25T07:47:09.541Z,72.63
2017-07-25T07:48:09.231Z,72.81
2017-07-25T07:49:09.224Z,73
2017-07-25T07:50:09.529Z,73.1
2017-07-25T07:51:09.523Z,73.1
2017-07-25T07:52:09.522Z,73.65
2017-07-25T07:53:09.518Z,73.55
2017-07-25T07:54:09.515Z,73.65
2017-07-25T07:55:09.510Z,74.12
2017-07-25T07:56:09.656Z,74.69
2017-07-25T07:57:09.500Z,75.18
2017-07-25T07:58:09.499Z,75.56
2017-07-25T07:59:09.501Z,75.37
2017-07-25T08:00:09.494Z,75.75
2017-07-25T08:01:09.492Z,76.39
2017-07-25T08:02:09.283Z,76.77
2017-07-25T08:03:09.482Z,76.86
2017-07-25T08:04:09.480Z,77.25
2017-07-25T08:05:09.524Z,77.92
2017-07-25T08:06:09.474Z,77.73
2017-07-25T08:07:09.471Z,78.11
2017-07-25T08:08:09.465Z,78.11
2017-07-25T08:09:09.159Z,78.4
2017-07-25T08:10:09.155Z,78.78
2017-07-25T08:11:09.483Z,78.69
2017-07-25T08:12:09.451Z,78.3
2017-07-25T08:13:09.453Z,78.69
2017-07-25T08:14:09.446Z,78.49
2017-07-25T08:15:09.440Z,78.78
2017-07-25T08:16:09.438Z,78.88
2017-07-25T08:17:09.129Z,79.26
2017-07-25T08:18:09.530Z,79.13
2017-07-25T08:19:09.428Z,79.41
2017-07-25T08:20:09.426Z,79.32
2017-07-25T08:21:09.117Z,79.41
2017-07-25T08:22:09.116Z,79.26
2017-07-25T08:23:09.417Z,79.16
2017-07-25T08:24:09.410Z,78.59
2017-07-25T08:25:09.407Z,78.59
2017-07-25T08:26:09.447Z,78.49
2017-07-25T08:27:09.405Z,78.34
2017-07-25T08:28:09.093Z,78.25
2017-07-25T08:29:09.395Z,77.86
2017-07-25T08:30:09.084Z,77.42
2017-07-25T08:31:09.384Z,77.33
2017-07-25T08:32:09.077Z,77.13
2017-07-25T08:33:09.378Z,76.84
2017-07-25T08:34:09.375Z,76.65
2017-07-25T08:35:09.373Z,76.59
2017-07-25T08:36:09.372Z,75.35
2017-07-25T08:37:09.365Z,75.21
2017-07-25T08:38:09.362Z,75.5
2017-07-25T08:39:09.359Z,75.63
2017-07-25T08:40:09.356Z,75.35
2017-07-25T08:41:09.351Z,74.68
2017-07-25T08:42:09.050Z,75.06
2017-07-25T08:43:09.346Z,74.96
2017-07-25T08:44:09.343Z,74.29
2017-07-25T08:45:09.340Z,74.29
2017-07-25T08:46:09.339Z,73.81
2017-07-25T08:47:09.331Z,73.14
2017-07-25T08:48:09.331Z,72.85
2017-07-25T08:49:09.325Z,72.95
2017-07-25T08:50:09.320Z,72.85
2017-07-25T08:51:09.318Z,73.14
2017-07-25T08:52:09.316Z,73.14
2017-07-25T08:53:09.314Z,73.14
2017-07-25T08:54:09.312Z,73.08
2017-07-25T08:55:09.305Z,72.6
2017-07-25T08:56:09.308Z,72.02
2017-07-25T08:57:09.301Z,71.45
2017-07-25T08:58:09.297Z,71.55
2017-07-25T08:59:09.294Z,71.35
2017-07-25T09:00:09.295Z,71.16
2017-07-25T09:01:09.290Z,71.16
2017-07-25T09:02:09.285Z,71.35
2017-07-25T09:03:09.286Z,71.55
2017-07-25T09:04:09.282Z,71.35
2017-07-25T09:05:09.277Z,71.35
2017-07-25T09:06:09.283Z,71.31
2017-07-25T09:07:09.268Z,71.61
2017-07-25T09:08:09.365Z,72.53
2017-07-25T09:09:09.261Z,72.43
2017-07-25T09:10:09.268Z,72.91
2017-07-25T09:11:09.259Z,73.87
2017-07-25T09:12:09.256Z,74.16
2017-07-25T09:13:09.251Z,74.16
2017-07-25T09:14:09.246Z,74.6
2017-07-25T09:15:09.284Z,74.89
2017-07-25T09:16:09.392Z,74.6
2017-07-25T09:17:09.235Z,75.08
2017-07-25T09:18:09.235Z,74.89
2017-07-25T09:19:09.233Z,74.64
2017-07-25T09:20:09.235Z,74.54
2017-07-25T09:21:09.330Z,74.26
2017-07-25T09:22:08.914Z,73.49
2017-07-25T09:23:09.219Z,73.49
2017-07-25T09:24:09.215Z,73.77
2017-07-25T09:25:09.223Z,74.44
2017-07-25T09:26:09.393Z,74.64
2017-07-25T09:27:09.208Z,75.12
2017-07-25T09:28:08.898Z,75.5
2017-07-25T09:29:09.204Z,76.37
2017-07-25T09:30:09.252Z,76.27
2017-07-25T09:31:09.192Z,76.27
2017-07-25T09:32:09.191Z,76.37
2017-07-25T09:33:09.187Z,76.37
2017-07-25T09:34:09.184Z,77.13
2017-07-25T09:35:09.281Z,76.94
2017-07-25T09:36:09.175Z,76.75
2017-07-25T09:37:09.170Z,77.13
2017-07-25T09:38:09.170Z,77.23
2017-07-25T09:39:09.171Z,76.75
2017-07-25T09:40:08.856Z,76.94
2017-07-25T09:41:08.853Z,76.94
2017-07-25T09:42:08.952Z,76.37
2017-07-25T09:43:09.154Z,76.5
2017-07-25T09:44:09.153Z,75.63
2017-07-25T09:45:09.276Z,74.96
2017-07-25T09:46:09.145Z,74.23
2017-07-25T09:47:09.141Z,74.33
2017-07-25T09:48:09.143Z,74.33
2017-07-25T09:49:09.140Z,73.94
2017-07-25T09:50:09.131Z,73.75
2017-07-25T09:51:09.128Z,73.24
2017-07-25T09:52:09.124Z,73.04
2017-07-25T09:53:09.118Z,74.06
2017-07-25T09:54:09.118Z,75.21
2017-07-25T09:55:09.114Z,76.37
2017-07-25T09:56:09.124Z,76.81
2017-07-25T09:57:09.209Z,77.58
2017-07-25T09:58:09.102Z,77.29
2017-07-25T09:59:09.110Z,77.86
2017-07-25T10:00:09.096Z,78.11
2017-07-25T10:01:09.095Z,78.2
2017-07-25T10:02:09.093Z,78.53
2017-07-25T10:03:09.088Z,78.63
2017-07-25T10:04:09.083Z,78.44
2017-07-25T10:05:08.777Z,78.34
2017-07-25T10:06:09.076Z,78.05
2017-07-25T10:07:08.772Z,77.71
2017-07-25T10:08:09.176Z,77.51
2017-07-25T10:09:09.072Z,77.33
2017-07-25T10:10:09.066Z,76.94
2017-07-25T10:11:09.061Z,77.13
2017-07-25T10:12:09.060Z,77.13
2017-07-25T10:13:09.153Z,78.09
2017-07-25T10:14:09.056Z,78.34
2017-07-25T10:15:09.049Z,79.21
2017-07-25T10:16:09.054Z,80.45
2017-07-25T10:17:09.043Z,80.7
2017-07-25T10:18:09.044Z,80.99
2017-07-25T10:19:09.034Z,81.85
2017-07-25T10:20:09.186Z,82.19
2017-07-25T10:21:09.181Z,83.05
2017-07-25T10:22:09.031Z,83.15
2017-07-25T10:23:09.044Z,83.48
2017-07-25T10:24:08.817Z,83.48
2017-07-25T10:25:09.015Z,83.86
2017-07-25T10:26:08.707Z,83.52
2017-07-25T10:27:09.109Z,83.71
2017-07-25T10:28:08.702Z,82.89
2017-07-25T10:29:09.003Z,81.74
2017-07-25T10:30:08.998Z,81.54
2017-07-25T10:31:09.001Z,81.07
2017-07-25T10:32:08.993Z,80.58
2017-07-25T10:33:08.990Z,80.4
2017-07-25T10:34:08.682Z,80.34
2017-07-25T10:35:08.985Z,79.19
2017-07-25T10:36:09.179Z,78.57
2017-07-25T10:37:08.982Z,78.09
2017-07-25T10:38:08.973Z,78.38
2017-07-25T10:39:09.068Z,78.86
2017-07-25T10:40:08.969Z,79.24
2017-07-25T10:41:08.965Z,79.49
2017-07-25T10:42:08.963Z,80.64
2017-07-25T10:43:08.957Z,80.79
2017-07-25T10:44:09.103Z,81.85
2017-07-25T10:45:08.950Z,81.71
2017-07-25T10:46:08.949Z,82.29
2017-07-25T10:47:08.942Z,82.57
2017-07-25T10:48:08.636Z,82.48
2017-07-25T10:49:08.936Z,83.34
2017-07-25T10:50:08.629Z,83.05
2017-07-25T10:51:08.926Z,83.34
2017-07-25T10:52:08.938Z,82.57
2017-07-25T10:53:08.927Z,82.48
2017-07-25T10:54:08.922Z,82.57
2017-07-25T10:55:08.915Z,82.48
2017-07-25T10:56:08.914Z,82.67
2017-07-25T10:57:08.908Z,82.9
2017-07-25T10:58:08.598Z,82.32
2017-07-25T10:59:08.600Z,82.42
2017-07-25T11:00:08.902Z,81.89
2017-07-25T11:01:08.899Z,81.02
2017-07-25T11:02:08.589Z,81.12
2017-07-25T11:03:08.888Z,81.31
2017-07-25T11:04:08.888Z,81.26
2017-07-25T11:05:08.892Z,81.02
2017-07-25T11:06:08.880Z,81.16
2017-07-25T11:07:08.875Z,80.49
2017-07-25T11:08:08.871Z,80.78
2017-07-25T11:09:08.567Z,80.68
2017-07-25T11:10:08.868Z,79.57
2017-07-25T11:11:08.862Z,79.19
2017-07-25T11:12:08.553Z,78.61
2017-07-25T11:13:08.854Z,78.32
2017-07-25T11:14:08.853Z,77.65
2017-07-25T11:15:08.891Z,77.65
2017-07-25T11:16:08.845Z,77.36
2017-07-25T11:17:08.845Z,77.36
2017-07-25T11:18:08.839Z,77.9
2017-07-25T11:19:08.837Z,77.61
2017-07-25T11:20:08.836Z,78.19
2017-07-25T11:21:08.832Z,78
2017-07-25T11:22:08.824Z,77.8
2017-07-25T11:23:08.823Z,77.8
2017-07-25T11:24:08.820Z,77.84
2017-07-25T11:25:08.819Z,77.84
2017-07-25T11:26:08.810Z,77.46
2017-07-25T11:27:08.812Z,77.26
2017-07-25T11:28:08.959Z,77.17
2017-07-25T11:29:08.802Z,76.06
2017-07-25T11:30:08.803Z,76.06
2017-07-25T11:31:08.794Z,75.57
2017-07-25T11:32:08.791Z,73.94
2017-07-25T11:33:08.791Z,73.75
2017-07-25T11:34:08.885Z,72.99
2017-07-25T11:35:08.791Z,72.92
2017-07-25T11:36:08.777Z,72.25
2017-07-25T11:37:08.781Z,71.48
2017-07-25T11:38:08.772Z,71.19
2017-07-25T11:39:08.924Z,70.75
2017-07-25T11:40:08.767Z,70.75
2017-07-25T11:41:08.463Z,71.04
2017-07-25T11:42:08.762Z,70.46
2017-07-25T11:43:08.757Z,70.04
2017-07-25T11:44:08.758Z,69.89
2017-07-25T11:45:08.757Z,69.12
2017-07-25T11:46:08.750Z,68.98
2017-07-25T11:47:08.746Z,69.02
2017-07-25T11:48:08.743Z,69.21
2017-07-25T11:49:08.838Z,68.63
2017-07-25T11:50:08.734Z,67.86
2017-07-25T11:51:08.428Z,67.42
2017-07-25T11:52:08.727Z,67.51
2017-07-25T11:53:08.729Z,67.42
2017-07-25T11:54:08.727Z,66.3
2017-07-25T11:55:08.825Z,65.81
2017-07-25T11:56:08.715Z,64.28
2017-07-25T11:57:08.722Z,63.22
2017-07-25T11:58:08.713Z,63.12
2017-07-25T11:59:08.709Z,62.54
2017-07-25T12:00:08.401Z,61.77
2017-07-25T12:01:08.706Z,61.1
2017-07-25T12:02:08.701Z,60.72
2017-07-25T12:03:08.699Z,60.52
2017-07-25T12:04:08.392Z,60.81
2017-07-25T12:05:08.793Z,60.14
2017-07-25T12:06:08.384Z,59.56
2017-07-25T12:07:08.689Z,59.75
2017-07-25T12:08:08.379Z,60.04
2017-07-25T12:09:08.679Z,60.52
2017-07-25T12:10:08.525Z,61
2017-07-25T12:11:08.777Z,60.81
2017-07-25T12:12:08.673Z,61.65
2017-07-25T12:13:08.670Z,61.55
2017-07-25T12:14:08.667Z,61.04
2017-07-25T12:15:08.821Z,60.94
2017-07-25T12:16:08.763Z,61.23
2017-07-25T12:17:08.657Z,62.16
2017-07-25T12:18:08.657Z,62.74
2017-07-25T12:19:08.651Z,62.64
2017-07-25T12:20:08.645Z,62.35
2017-07-25T12:21:08.643Z,63.19
2017-07-25T12:22:08.642Z,63.09
2017-07-25T12:23:08.638Z,63.28
2017-07-25T12:24:08.634Z,63.83
2017-07-25T12:25:08.692Z,64.12
2017-07-25T12:26:08.733Z,64.59
2017-07-25T12:27:08.626Z,64.79
2017-07-25T12:28:08.621Z,64.59
2017-07-25T12:29:08.622Z,64.82
2017-07-25T12:30:08.616Z,64.63
2017-07-25T12:31:08.618Z,64.82
2017-07-25T12:32:08.616Z,64.82
2017-07-25T12:33:08.610Z,64.63
2017-07-25T12:34:08.702Z,64.66
2017-07-25T12:35:08.600Z,64.5
2017-07-25T12:36:08.615Z,63.73
2017-07-25T12:37:08.595Z,63.73
2017-07-25T12:38:08.292Z,62.41
2017-07-25T12:39:08.592Z,62.13
2017-07-25T12:40:08.281Z,62.41
2017-07-25T12:41:08.585Z,61.16
2017-07-25T12:42:08.582Z,61
2017-07-25T12:43:08.580Z,60.81
2017-07-25T12:44:08.570Z,60.42
2017-07-25T12:45:08.578Z,59.85
2017-07-25T12:46:08.566Z,59.4
2017-07-25T12:47:08.663Z,58.92
2017-07-25T12:48:08.563Z,59.11
2017-07-25T12:49:08.583Z,59.2
2017-07-25T12:50:08.354Z,59.27
2017-07-25T12:51:08.549Z,57.73
2017-07-25T12:52:08.555Z,57.83
2017-07-25T12:53:08.543Z,58.02
2017-07-25T12:54:08.695Z,57.73
2017-07-25T12:55:08.541Z,58.4